sensor_id;sensor_type;location;lat;lon;timestamp;P1;durP1;ratioP1;P2;durP2;ratioP2
51228;SDS011;37304;52.216;6.874;2023-05-17T00:09:30;8.47;;;1.80;;
51228;SDS011;37304;52.216;6.874;2023-05-17T00:19:31;6.45;;;1.77;;
51228;SDS011;37304;52.216;6.874;2023-05-17T00:34:31;6.75;;;2.65;;
51228;SDS011;37304;52.216;6.874;2023-05-17T00:44:32;5.67;;;2.00;;
51228;SDS011;37304;52.216;6.874;2023-05-17T00:49:32;10.73;;;2.10;;
51228;SDS011;37304;52.216;6.874;2023-05-17T00:54:33;7.80;;;2.73;;
51228;SDS011;37304;52.216;6.874;2023-05-17T00:59:37;10.80;;;2.75;;
51228;SDS011;37304;52.216;6.874;2023-05-17T01:04:38;6.13;;;2.17;;
51228;SDS011;37304;52.216;6.874;2023-05-17T01:30:41;5.45;;;2.33;;
51228;SDS011;37304;52.216;6.874;2023-05-17T01:35:46;7.25;;;2.42;;
51228;SDS011;37304;52.216;6.874;2023-05-17T01:51:26;13.70;;;2.30;;
51228;SDS011;37304;52.216;6.874;2023-05-17T01:56:32;7.05;;;2.00;;
51228;SDS011;37304;52.216;6.874;2023-05-17T02:01:34;6.93;;;2.05;;
51228;SDS011;37304;52.216;6.874;2023-05-17T02:06:35;11.65;;;2.38;;
51228;SDS011;37304;52.216;6.874;2023-05-17T02:11:35;7.43;;;2.40;;
51228;SDS011;37304;52.216;6.874;2023-05-17T02:16:36;7.13;;;2.20;;
51228;SDS011;37304;52.216;6.874;2023-05-17T02:21:36;10.97;;;2.67;;
51228;SDS011;37304;52.216;6.874;2023-05-17T02:31:37;8.67;;;1.67;;
51228;SDS011;37304;52.216;6.874;2023-05-17T02:36:37;11.33;;;2.20;;
51228;SDS011;37304;52.216;6.874;2023-05-17T02:41:39;6.82;;;2.60;;
51228;SDS011;37304;52.216;6.874;2023-05-17T02:46:39;3.72;;;1.50;;
51228;SDS011;37304;52.216;6.874;2023-05-17T02:51:39;12.83;;;2.53;;
51228;SDS011;37304;52.216;6.874;2023-05-17T02:56:40;10.13;;;2.67;;
51228;SDS011;37304;52.216;6.874;2023-05-17T03:01:40;9.73;;;1.60;;
51228;SDS011;37304;52.216;6.874;2023-05-17T03:06:41;5.23;;;2.30;;
51228;SDS011;37304;52.216;6.874;2023-05-17T03:11:41;7.27;;;2.00;;
51228;SDS011;37304;52.216;6.874;2023-05-17T03:16:41;17.07;;;2.03;;
51228;SDS011;37304;52.216;6.874;2023-05-17T03:21:42;10.75;;;2.70;;
51228;SDS011;37304;52.216;6.874;2023-05-17T03:26:42;7.03;;;1.90;;
51228;SDS011;37304;52.216;6.874;2023-05-17T03:31:42;6.80;;;2.37;;
51228;SDS011;37304;52.216;6.874;2023-05-17T03:36:43;7.27;;;1.97;;
51228;SDS011;37304;52.216;6.874;2023-05-17T03:41:43;8.50;;;2.17;;
51228;SDS011;37304;52.216;6.874;2023-05-17T03:46:43;12.03;;;2.40;;
51228;SDS011;37304;52.216;6.874;2023-05-17T03:51:44;6.73;;;2.27;;
51228;SDS011;37304;52.216;6.874;2023-05-17T03:56:44;8.37;;;2.13;;
51228;SDS011;37304;52.216;6.874;2023-05-17T04:01:46;9.98;;;2.65;;
51228;SDS011;37304;52.216;6.874;2023-05-17T04:06:46;11.03;;;2.40;;
51228;SDS011;37304;52.216;6.874;2023-05-17T04:11:46;10.70;;;2.07;;
51228;SDS011;37304;52.216;6.874;2023-05-17T04:16:47;10.70;;;2.53;;
51228;SDS011;37304;52.216;6.874;2023-05-17T04:21:47;8.93;;;2.70;;
51228;SDS011;37304;52.216;6.874;2023-05-17T04:26:50;15.43;;;2.45;;
51228;SDS011;37304;52.216;6.874;2023-05-17T04:31:51;13.60;;;2.50;;
51228;SDS011;37304;52.216;6.874;2023-05-17T04:36:51;9.63;;;2.00;;
51228;SDS011;37304;52.216;6.874;2023-05-17T04:41:52;7.03;;;1.60;;
51228;SDS011;37304;52.216;6.874;2023-05-17T04:46:52;4.47;;;1.73;;
51228;SDS011;37304;52.216;6.874;2023-05-17T04:51:52;12.47;;;1.83;;
51228;SDS011;37304;52.216;6.874;2023-05-17T04:56:53;8.43;;;1.37;;
51228;SDS011;37304;52.216;6.874;2023-05-17T05:01:53;10.70;;;2.80;;
51228;SDS011;37304;52.216;6.874;2023-05-17T05:06:56;6.00;;;1.53;;
51228;SDS011;37304;52.216;6.874;2023-05-17T05:11:57;7.20;;;1.05;;
51228;SDS011;37304;52.216;6.874;2023-05-17T05:16:57;11.23;;;1.40;;
51228;SDS011;37304;52.216;6.874;2023-05-17T05:21:57;11.07;;;1.60;;
51228;SDS011;37304;52.216;6.874;2023-05-17T05:26:58;6.77;;;1.43;;
51228;SDS011;37304;52.216;6.874;2023-05-17T05:31:58;6.40;;;1.37;;
51228;SDS011;37304;52.216;6.874;2023-05-17T05:41:59;5.78;;;1.55;;
51228;SDS011;37304;52.216;6.874;2023-05-17T05:52:00;13.55;;;1.65;;
51228;SDS011;37304;52.216;6.874;2023-05-17T05:57:00;13.10;;;1.63;;
51228;SDS011;37304;52.216;6.874;2023-05-17T06:02:01;10.60;;;1.57;;
51228;SDS011;37304;52.216;6.874;2023-05-17T06:07:01;9.70;;;1.43;;
51228;SDS011;37304;52.216;6.874;2023-05-17T06:12:02;6.17;;;1.10;;
51228;SDS011;37304;52.216;6.874;2023-05-17T06:17:02;9.93;;;1.43;;
51228;SDS011;37304;52.216;6.874;2023-05-17T06:22:03;8.20;;;1.98;;
51228;SDS011;37304;52.216;6.874;2023-05-17T06:27:04;6.70;;;0.70;;
51228;SDS011;37304;52.216;6.874;2023-05-17T06:32:04;8.75;;;1.10;;
51228;SDS011;37304;52.216;6.874;2023-05-17T06:42:05;5.22;;;0.85;;
51228;SDS011;37304;52.216;6.874;2023-05-17T06:52:06;8.82;;;1.40;;
51228;SDS011;37304;52.216;6.874;2023-05-17T07:02:06;21.02;;;1.35;;
51228;SDS011;37304;52.216;6.874;2023-05-17T07:12:07;3.45;;;0.88;;
51228;SDS011;37304;52.216;6.874;2023-05-17T07:22:09;2.42;;;0.65;;
51228;SDS011;37304;52.216;6.874;2023-05-17T07:27:11;5.55;;;0.70;;
51228;SDS011;37304;52.216;6.874;2023-05-17T07:32:11;9.05;;;0.93;;
51228;SDS011;37304;52.216;6.874;2023-05-17T07:37:12;4.20;;;0.90;;
51228;SDS011;37304;52.216;6.874;2023-05-17T07:42:12;6.45;;;0.60;;
51228;SDS011;37304;52.216;6.874;2023-05-17T07:47:13;6.30;;;0.93;;
51228;SDS011;37304;52.216;6.874;2023-05-17T07:52:13;1.40;;;0.98;;
51228;SDS011;37304;52.216;6.874;2023-05-17T07:57:14;8.02;;;1.25;;
51228;SDS011;37304;52.216;6.874;2023-05-17T08:02:14;8.67;;;1.00;;
51228;SDS011;37304;52.216;6.874;2023-05-17T08:07:14;7.50;;;1.00;;
51228;SDS011;37304;52.216;6.874;2023-05-17T08:12:15;5.67;;;1.07;;
51228;SDS011;37304;52.216;6.874;2023-05-17T08:17:15;4.47;;;0.90;;
51228;SDS011;37304;52.216;6.874;2023-05-17T08:22:15;12.07;;;1.20;;
51228;SDS011;37304;52.216;6.874;2023-05-17T08:27:16;3.87;;;0.70;;
51228;SDS011;37304;52.216;6.874;2023-05-17T08:32:16;5.47;;;0.50;;
51228;SDS011;37304;52.216;6.874;2023-05-17T08:37:17;4.90;;;0.67;;
51228;SDS011;37304;52.216;6.874;2023-05-17T08:42:20;5.93;;;0.73;;
51228;SDS011;37304;52.216;6.874;2023-05-17T08:47:21;2.92;;;0.52;;
51228;SDS011;37304;52.216;6.874;2023-05-17T08:52:31;6.18;;;0.82;;
51228;SDS011;37304;52.216;6.874;2023-05-17T08:57:33;7.20;;;1.35;;
51228;SDS011;37304;52.216;6.874;2023-05-17T09:02:37;2.05;;;0.70;;
51228;SDS011;37304;52.216;6.874;2023-05-17T09:07:39;4.40;;;0.68;;
51228;SDS011;37304;52.216;6.874;2023-05-17T09:12:40;4.80;;;0.60;;
51228;SDS011;37304;52.216;6.874;2023-05-17T09:17:40;6.57;;;0.88;;
51228;SDS011;37304;52.216;6.874;2023-05-17T09:22:41;3.75;;;0.60;;
51228;SDS011;37304;52.216;6.874;2023-05-17T09:27:43;8.98;;;1.20;;
51228;SDS011;37304;52.216;6.874;2023-05-17T09:32:43;9.70;;;0.90;;
51228;SDS011;37304;52.216;6.874;2023-05-17T09:37:45;7.65;;;1.02;;
51228;SDS011;37304;52.216;6.874;2023-05-17T09:42:46;4.45;;;0.88;;
51228;SDS011;37304;52.216;6.874;2023-05-17T09:47:47;5.28;;;0.68;;
51228;SDS011;37304;52.216;6.874;2023-05-17T09:52:47;7.50;;;0.87;;
51228;SDS011;37304;52.216;6.874;2023-05-17T09:57:48;6.17;;;1.00;;
51228;SDS011;37304;52.216;6.874;2023-05-17T10:02:48;4.97;;;0.80;;
51228;SDS011;37304;52.216;6.874;2023-05-17T10:07:49;4.30;;;0.80;;
51228;SDS011;37304;52.216;6.874;2023-05-17T10:12:51;1.38;;;0.63;;
51228;SDS011;37304;52.216;6.874;2023-05-17T10:17:52;5.07;;;1.13;;
51228;SDS011;37304;52.216;6.874;2023-05-17T10:22:53;4.63;;;0.80;;
51228;SDS011;37304;52.216;6.874;2023-05-17T10:27:56;4.57;;;0.80;;
51228;SDS011;37304;52.216;6.874;2023-05-17T10:32:58;7.30;;;1.30;;
51228;SDS011;37304;52.216;6.874;2023-05-17T10:37:59;5.65;;;1.15;;
51228;SDS011;37304;52.216;6.874;2023-05-17T10:43:02;4.88;;;0.95;;
51228;SDS011;37304;52.216;6.874;2023-05-17T10:48:06;5.32;;;0.98;;
51228;SDS011;37304;52.216;6.874;2023-05-17T10:53:08;6.75;;;1.17;;
51228;SDS011;37304;52.216;6.874;2023-05-17T11:03:21;6.22;;;1.13;;
51228;SDS011;37304;52.216;6.874;2023-05-17T11:08:28;8.90;;;1.23;;
51228;SDS011;37304;52.216;6.874;2023-05-17T11:13:28;4.17;;;0.93;;
51228;SDS011;37304;52.216;6.874;2023-05-17T11:18:44;7.93;;;1.10;;
51228;SDS011;37304;52.216;6.874;2023-05-17T11:23:53;5.45;;;0.85;;
51228;SDS011;37304;52.216;6.874;2023-05-17T11:29:01;4.03;;;1.00;;
51228;SDS011;37304;52.216;6.874;2023-05-17T11:34:05;4.05;;;1.00;;
51228;SDS011;37304;52.216;6.874;2023-05-17T11:39:13;7.85;;;1.30;;
51228;SDS011;37304;52.216;6.874;2023-05-17T11:44:37;4.45;;;1.15;;
51228;SDS011;37304;52.216;6.874;2023-05-17T11:49:37;2.85;;;1.10;;
51228;SDS011;37304;52.216;6.874;2023-05-17T11:54:38;4.45;;;0.98;;
51228;SDS011;37304;52.216;6.874;2023-05-17T11:59:39;5.95;;;0.90;;
51228;SDS011;37304;52.216;6.874;2023-05-17T12:04:40;6.40;;;1.38;;
51228;SDS011;37304;52.216;6.874;2023-05-17T12:09:43;6.05;;;1.05;;
51228;SDS011;37304;52.216;6.874;2023-05-17T12:14:45;5.97;;;1.27;;
51228;SDS011;37304;52.216;6.874;2023-05-17T12:19:50;4.55;;;0.90;;
51228;SDS011;37304;52.216;6.874;2023-05-17T12:24:51;9.52;;;1.63;;
51228;SDS011;37304;52.216;6.874;2023-05-17T12:29:52;6.70;;;1.40;;
51228;SDS011;37304;52.216;6.874;2023-05-17T12:34:53;6.18;;;1.38;;
51228;SDS011;37304;52.216;6.874;2023-05-17T12:39:53;6.77;;;1.30;;
51228;SDS011;37304;52.216;6.874;2023-05-17T12:44:55;4.60;;;0.90;;
51228;SDS011;37304;52.216;6.874;2023-05-17T12:49:55;7.73;;;1.40;;
51228;SDS011;37304;52.216;6.874;2023-05-17T12:54:57;7.73;;;1.17;;
51228;SDS011;37304;52.216;6.874;2023-05-17T12:59:58;5.40;;;1.25;;
51228;SDS011;37304;52.216;6.874;2023-05-17T13:05:12;4.85;;;0.70;;
51228;SDS011;37304;52.216;6.874;2023-05-17T13:10:20;2.53;;;1.13;;
51228;SDS011;37304;52.216;6.874;2023-05-17T13:15:29;4.60;;;0.90;;
51228;SDS011;37304;52.216;6.874;2023-05-17T13:20:30;8.98;;;1.70;;
51228;SDS011;37304;52.216;6.874;2023-05-17T13:25:30;7.70;;;1.10;;
51228;SDS011;37304;52.216;6.874;2023-05-17T13:30:30;7.10;;;1.07;;
51228;SDS011;37304;52.216;6.874;2023-05-17T13:35:31;5.20;;;1.17;;
51228;SDS011;37304;52.216;6.874;2023-05-17T13:40:31;9.23;;;1.17;;
51228;SDS011;37304;52.216;6.874;2023-05-17T13:45:31;7.80;;;1.10;;
51228;SDS011;37304;52.216;6.874;2023-05-17T13:50:32;5.43;;;1.20;;
51228;SDS011;37304;52.216;6.874;2023-05-17T13:55:32;5.13;;;1.08;;
51228;SDS011;37304;52.216;6.874;2023-05-17T14:00:33;2.30;;;1.00;;
51228;SDS011;37304;52.216;6.874;2023-05-17T14:05:33;5.43;;;1.00;;
51228;SDS011;37304;52.216;6.874;2023-05-17T14:10:35;3.10;;;1.15;;
51228;SDS011;37304;52.216;6.874;2023-05-17T14:15:36;5.67;;;1.20;;
51228;SDS011;37304;52.216;6.874;2023-05-17T14:20:37;4.38;;;1.00;;
51228;SDS011;37304;52.216;6.874;2023-05-17T14:25:38;4.80;;;1.10;;
51228;SDS011;37304;52.216;6.874;2023-05-17T14:30:38;4.25;;;1.35;;
51228;SDS011;37304;52.216;6.874;2023-05-17T14:35:39;8.33;;;2.33;;
51228;SDS011;37304;52.216;6.874;2023-05-17T14:40:39;12.40;;;3.30;;
51228;SDS011;37304;52.216;6.874;2023-05-17T14:45:39;5.90;;;3.43;;
51228;SDS011;37304;52.216;6.874;2023-05-17T14:50:40;4.13;;;1.63;;
51228;SDS011;37304;52.216;6.874;2023-05-17T14:55:40;4.20;;;1.80;;
51228;SDS011;37304;52.216;6.874;2023-05-17T15:00:41;2.92;;;1.05;;
51228;SDS011;37304;52.216;6.874;2023-05-17T15:05:51;3.53;;;0.82;;
51228;SDS011;37304;52.216;6.874;2023-05-17T15:10:52;8.40;;;1.25;;
51228;SDS011;37304;52.216;6.874;2023-05-17T15:15:53;9.27;;;2.78;;
51228;SDS011;37304;52.216;6.874;2023-05-17T15:20:54;3.55;;;0.93;;
51228;SDS011;37304;52.216;6.874;2023-05-17T15:25:54;2.83;;;0.73;;
51228;SDS011;37304;52.216;6.874;2023-05-17T15:31:01;4.87;;;1.17;;
51228;SDS011;37304;52.216;6.874;2023-05-17T15:36:05;8.55;;;1.27;;
51228;SDS011;37304;52.216;6.874;2023-05-17T15:41:09;5.32;;;0.90;;
51228;SDS011;37304;52.216;6.874;2023-05-17T15:46:13;5.18;;;1.13;;
51228;SDS011;37304;52.216;6.874;2023-05-17T15:51:16;4.47;;;1.20;;
51228;SDS011;37304;52.216;6.874;2023-05-17T15:56:16;4.45;;;0.75;;
51228;SDS011;37304;52.216;6.874;2023-05-17T16:01:19;3.50;;;0.90;;
51228;SDS011;37304;52.216;6.874;2023-05-17T16:06:20;4.70;;;0.60;;
51228;SDS011;37304;52.216;6.874;2023-05-17T16:11:20;4.13;;;0.80;;
51228;SDS011;37304;52.216;6.874;2023-05-17T16:16:21;4.57;;;1.05;;
51228;SDS011;37304;52.216;6.874;2023-05-17T16:21:22;7.33;;;1.37;;
51228;SDS011;37304;52.216;6.874;2023-05-17T16:26:22;7.13;;;1.03;;
51228;SDS011;37304;52.216;6.874;2023-05-17T16:31:23;2.20;;;0.77;;
51228;SDS011;37304;52.216;6.874;2023-05-17T16:36:23;4.68;;;1.00;;
51228;SDS011;37304;52.216;6.874;2023-05-17T16:41:24;4.80;;;1.10;;
51228;SDS011;37304;52.216;6.874;2023-05-17T16:46:24;4.82;;;0.65;;
51228;SDS011;37304;52.216;6.874;2023-05-17T16:51:25;2.42;;;0.85;;
51228;SDS011;37304;52.216;6.874;2023-05-17T16:56:25;2.07;;;0.93;;
51228;SDS011;37304;52.216;6.874;2023-05-17T17:01:26;5.28;;;1.05;;
51228;SDS011;37304;52.216;6.874;2023-05-17T17:06:26;6.67;;;0.70;;
51228;SDS011;37304;52.216;6.874;2023-05-17T17:11:27;3.10;;;0.80;;
51228;SDS011;37304;52.216;6.874;2023-05-17T17:16:27;4.57;;;1.03;;
51228;SDS011;37304;52.216;6.874;2023-05-17T17:21:28;7.10;;;0.90;;
51228;SDS011;37304;52.216;6.874;2023-05-17T17:26:29;2.22;;;1.10;;
51228;SDS011;37304;52.216;6.874;2023-05-17T17:31:32;5.67;;;0.93;;
51228;SDS011;37304;52.216;6.874;2023-05-17T17:36:33;13.48;;;1.50;;
51228;SDS011;37304;52.216;6.874;2023-05-17T17:41:33;4.63;;;0.77;;
51228;SDS011;37304;52.216;6.874;2023-05-17T17:46:33;10.17;;;1.73;;
51228;SDS011;37304;52.216;6.874;2023-05-17T17:51:34;6.15;;;1.15;;
51228;SDS011;37304;52.216;6.874;2023-05-17T17:56:34;4.90;;;0.93;;
51228;SDS011;37304;52.216;6.874;2023-05-17T18:01:35;3.35;;;0.93;;
51228;SDS011;37304;52.216;6.874;2023-05-17T18:06:37;5.82;;;1.35;;
51228;SDS011;37304;52.216;6.874;2023-05-17T18:11:38;2.90;;;1.25;;
51228;SDS011;37304;52.216;6.874;2023-05-17T18:16:39;6.18;;;1.20;;
51228;SDS011;37304;52.216;6.874;2023-05-17T18:21:40;6.70;;;1.38;;
51228;SDS011;37304;52.216;6.874;2023-05-17T18:26:40;4.20;;;1.23;;
51228;SDS011;37304;52.216;6.874;2023-05-17T18:31:41;5.57;;;1.03;;
51228;SDS011;37304;52.216;6.874;2023-05-17T18:36:44;4.27;;;1.10;;
51228;SDS011;37304;52.216;6.874;2023-05-17T18:41:45;4.93;;;1.25;;
51228;SDS011;37304;52.216;6.874;2023-05-17T18:46:45;4.17;;;1.00;;
51228;SDS011;37304;52.216;6.874;2023-05-17T18:51:46;3.23;;;1.20;;
51228;SDS011;37304;52.216;6.874;2023-05-17T18:56:47;2.38;;;0.70;;
51228;SDS011;37304;52.216;6.874;2023-05-17T19:01:47;4.70;;;0.90;;
51228;SDS011;37304;52.216;6.874;2023-05-17T19:06:47;3.80;;;1.37;;
51228;SDS011;37304;52.216;6.874;2023-05-17T19:11:48;5.23;;;1.13;;
51228;SDS011;37304;52.216;6.874;2023-05-17T19:16:48;3.05;;;0.90;;
51228;SDS011;37304;52.216;6.874;2023-05-17T19:21:50;8.07;;;1.23;;
51228;SDS011;37304;52.216;6.874;2023-05-17T19:26:51;4.57;;;1.10;;
51228;SDS011;37304;52.216;6.874;2023-05-17T19:31:53;2.43;;;0.80;;
51228;SDS011;37304;52.216;6.874;2023-05-17T19:36:53;4.28;;;1.27;;
51228;SDS011;37304;52.216;6.874;2023-05-17T19:41:54;7.22;;;1.15;;
51228;SDS011;37304;52.216;6.874;2023-05-17T19:46:55;5.63;;;1.53;;
51228;SDS011;37304;52.216;6.874;2023-05-17T19:51:55;4.00;;;1.00;;
51228;SDS011;37304;52.216;6.874;2023-05-17T19:56:59;4.53;;;1.40;;
51228;SDS011;37304;52.216;6.874;2023-05-17T20:02:03;5.18;;;1.55;;
51228;SDS011;37304;52.216;6.874;2023-05-17T20:07:03;6.47;;;1.25;;
51228;SDS011;37304;52.216;6.874;2023-05-17T20:12:04;1.88;;;0.90;;
51228;SDS011;37304;52.216;6.874;2023-05-17T20:17:06;1.73;;;0.82;;
51228;SDS011;37304;52.216;6.874;2023-05-17T20:27:06;5.43;;;0.83;;
51228;SDS011;37304;52.216;6.874;2023-05-17T20:37:07;6.73;;;1.23;;
51228;SDS011;37304;52.216;6.874;2023-05-17T20:47:08;3.35;;;1.42;;
51228;SDS011;37304;52.216;6.874;2023-05-17T20:52:09;8.63;;;1.10;;
51228;SDS011;37304;52.216;6.874;2023-05-17T21:02:10;3.92;;;1.52;;
51228;SDS011;37304;52.216;6.874;2023-05-17T21:12:10;13.00;;;1.13;;
51228;SDS011;37304;52.216;6.874;2023-05-17T21:17:11;3.67;;;1.00;;
51228;SDS011;37304;52.216;6.874;2023-05-17T21:27:11;3.67;;;1.33;;
51228;SDS011;37304;52.216;6.874;2023-05-17T21:42:12;3.88;;;0.95;;
51228;SDS011;37304;52.216;6.874;2023-05-17T21:47:12;3.40;;;1.00;;
51228;SDS011;37304;52.216;6.874;2023-05-17T21:52:13;3.60;;;1.47;;
51228;SDS011;37304;52.216;6.874;2023-05-17T21:57:13;2.80;;;1.30;;
51228;SDS011;37304;52.216;6.874;2023-05-17T22:02:13;4.77;;;1.10;;
51228;SDS011;37304;52.216;6.874;2023-05-17T22:07:14;4.87;;;1.07;;
51228;SDS011;37304;52.216;6.874;2023-05-17T22:12:14;3.30;;;1.63;;
51228;SDS011;37304;52.216;6.874;2023-05-17T22:17:14;6.90;;;1.67;;
51228;SDS011;37304;52.216;6.874;2023-05-17T22:22:15;2.20;;;0.90;;
51228;SDS011;37304;52.216;6.874;2023-05-17T22:27:17;1.80;;;1.10;;
51228;SDS011;37304;52.216;6.874;2023-05-17T22:32:17;1.67;;;1.03;;
51228;SDS011;37304;52.216;6.874;2023-05-17T22:37:17;5.67;;;1.00;;
51228;SDS011;37304;52.216;6.874;2023-05-17T22:42:21;5.97;;;1.83;;
51228;SDS011;37304;52.216;6.874;2023-05-17T22:47:21;3.27;;;0.90;;
51228;SDS011;37304;52.216;6.874;2023-05-17T22:57:23;2.92;;;0.88;;
51228;SDS011;37304;52.216;6.874;2023-05-17T23:02:23;3.67;;;0.93;;
51228;SDS011;37304;52.216;6.874;2023-05-17T23:07:23;9.27;;;1.83;;
51228;SDS011;37304;52.216;6.874;2023-05-17T23:12:24;3.10;;;0.93;;
51228;SDS011;37304;52.216;6.874;2023-05-17T23:17:26;5.13;;;1.48;;
51228;SDS011;37304;52.216;6.874;2023-05-17T23:22:32;6.35;;;1.08;;
51228;SDS011;37304;52.216;6.874;2023-05-17T23:27:33;6.28;;;1.10;;
51228;SDS011;37304;52.216;6.874;2023-05-17T23:32:34;4.03;;;0.90;;
51228;SDS011;37304;52.216;6.874;2023-05-17T23:37:35;2.73;;;0.97;;
51228;SDS011;37304;52.216;6.874;2023-05-17T23:42:35;3.33;;;1.73;;
51228;SDS011;37304;52.216;6.874;2023-05-17T23:47:36;4.68;;;1.38;;
51228;SDS011;37304;52.216;6.874;2023-05-17T23:52:39;11.75;;;2.25;;
51228;SDS011;37304;52.216;6.874;2023-05-17T23:57:39;11.43;;;1.70;;
